createdAt,value
2022-10-30T00:00:03.569Z,12.73
2022-10-30T00:04:07.263Z,13.38
2022-10-30T00:08:20.758Z,13.31
2022-10-30T00:12:26.794Z,13.43
2022-10-30T00:16:31.030Z,12.97
2022-10-30T00:20:36.795Z,13.36
2022-10-30T00:24:41.781Z,13.07
2022-10-30T00:29:00.808Z,12.97
2022-10-30T00:33:06.669Z,12.88
2022-10-30T00:37:23.031Z,13.04
2022-10-30T00:41:26.706Z,12.85
2022-10-30T00:45:40.946Z,12.85
2022-10-30T00:49:56.948Z,12.88
2022-10-30T00:54:05.340Z,12.90
2022-10-30T00:58:23.697Z,13.02
2022-10-30T01:02:30.926Z,13.00
2022-10-30T01:06:37.314Z,12.97
2022-10-30T01:10:40.919Z,12.90
2022-10-30T01:14:49.184Z,12.92
2022-10-30T01:19:01.148Z,12.89
2022-10-30T01:23:17.426Z,12.88
2022-10-30T01:27:37.024Z,12.86
2022-10-30T01:31:53.914Z,12.86
2022-10-30T01:36:04.728Z,12.87
2022-10-30T01:40:13.489Z,12.91
2022-10-30T01:44:21.825Z,12.95
2022-10-30T01:48:51.808Z,13.00
2022-10-30T01:53:05.051Z,13.04
2022-10-30T01:57:14.273Z,13.07
2022-10-30T02:01:18.388Z,13.07
2022-10-30T02:05:28.306Z,13.10
2022-10-30T02:09:33.677Z,13.10
2022-10-30T02:13:37.778Z,13.11
2022-10-30T02:17:41.766Z,13.10
2022-10-30T02:21:46.810Z,13.10
2022-10-30T02:25:49.813Z,13.07
2022-10-30T02:29:53.297Z,13.04
2022-10-30T02:33:57.163Z,13.02
2022-10-30T02:38:02.717Z,12.99
2022-10-30T02:46:09.139Z,12.95
2022-10-30T02:50:12.499Z,12.91
2022-10-30T02:54:17.378Z,12.88
2022-10-30T02:58:20.465Z,12.87
2022-10-30T03:02:24.056Z,12.79
2022-10-30T03:06:27.970Z,12.81
2022-10-30T03:10:32.356Z,12.77
2022-10-30T03:14:35.907Z,12.72
2022-10-30T03:18:39.806Z,12.63
2022-10-30T03:22:42.825Z,12.61
2022-10-30T03:26:48.795Z,12.54
2022-10-30T03:30:53.464Z,12.43
2022-10-30T03:34:56.522Z,12.38
2022-10-30T03:39:00.099Z,12.26
2022-10-30T03:43:05.003Z,12.25
2022-10-30T03:47:08.563Z,12.20
2022-10-30T03:51:11.616Z,12.15
2022-10-30T03:55:15.200Z,12.11
2022-10-30T03:59:20.047Z,12.07
2022-10-30T04:03:23.392Z,12.02
2022-10-30T04:07:27.261Z,11.99
2022-10-30T04:11:31.034Z,11.94
2022-10-30T04:15:36.017Z,11.92
2022-10-30T04:19:39.792Z,11.86
2022-10-30T04:23:43.298Z,11.82
2022-10-30T04:27:47.153Z,11.75
2022-10-30T04:31:51.644Z,11.80
2022-10-30T04:35:55.550Z,11.79
2022-10-30T04:39:58.845Z,11.79
2022-10-30T04:44:02.240Z,11.81
2022-10-30T04:48:09.708Z,11.82
2022-10-30T04:52:13.147Z,11.82
2022-10-30T04:56:17.078Z,11.83
2022-10-30T05:00:20.705Z,11.83
2022-10-30T05:04:25.271Z,11.85
2022-10-30T05:08:28.909Z,11.82
2022-10-30T05:12:32.320Z,11.77
2022-10-30T05:16:35.507Z,11.85
2022-10-30T05:20:40.396Z,11.86
2022-10-30T05:24:43.958Z,11.87
2022-10-30T05:28:48.077Z,11.85
2022-10-30T05:32:51.622Z,11.86
2022-10-30T05:36:55.974Z,11.86
2022-10-30T05:40:59.449Z,11.88
2022-10-30T05:45:02.959Z,11.83
2022-10-30T05:49:06.398Z,11.90
2022-10-30T05:53:11.691Z,11.92
2022-10-30T05:57:14.731Z,11.90
2022-10-30T06:01:18.813Z,11.89
2022-10-30T06:05:22.489Z,11.95
2022-10-30T06:09:27.463Z,12.00
2022-10-30T06:13:30.535Z,12.03
2022-10-30T06:17:34.134Z,12.08
2022-10-30T06:21:37.245Z,12.14
2022-10-30T06:25:41.863Z,12.18
2022-10-30T06:29:44.910Z,12.19
2022-10-30T06:33:48.418Z,12.18
2022-10-30T06:37:54.076Z,12.20
2022-10-30T06:41:59.017Z,12.17
2022-10-30T06:46:02.295Z,12.20
2022-10-30T07:01:03.632Z,12.34
2022-10-30T07:06:02.403Z,12.46
2022-10-30T07:21:47.425Z,12.86
2022-10-30T07:26:47.456Z,12.97
2022-10-30T08:13:15.216Z,14.79
2022-10-30T08:17:18.300Z,14.88
2022-10-30T08:21:21.661Z,15.14
2022-10-30T08:25:26.598Z,15.40
2022-10-30T08:29:34.821Z,15.64
2022-10-30T08:33:37.860Z,15.86
2022-10-30T08:37:40.894Z,16.02
2022-10-30T08:41:44.057Z,16.17
2022-10-30T08:45:48.959Z,16.33
2022-10-30T08:49:52.555Z,16.47
2022-10-30T08:53:55.612Z,16.60
2022-10-30T08:57:59.431Z,16.79
2022-10-30T09:02:04.586Z,16.99
2022-10-30T09:06:08.317Z,17.28
2022-10-30T09:10:12.766Z,17.59
2022-10-30T09:14:15.792Z,17.89
2022-10-30T09:18:20.777Z,18.19
2022-10-30T09:22:23.839Z,18.49
2022-10-30T09:26:27.368Z,18.79
2022-10-30T09:30:30.439Z,19.10
2022-10-30T09:34:35.161Z,19.41
2022-10-30T09:38:38.638Z,19.70
2022-10-30T09:42:46.113Z,19.89
2022-10-30T09:47:02.595Z,19.96
2022-10-30T09:51:17.144Z,20.05
2022-10-30T09:55:40.435Z,20.19
2022-10-30T09:59:58.370Z,20.44
2022-10-30T10:04:08.003Z,20.72
2022-10-30T10:08:19.284Z,21.03
2022-10-30T10:12:31.097Z,21.37
2022-10-30T10:16:37.278Z,21.68
2022-10-30T10:20:43.551Z,21.98
2022-10-30T10:24:49.101Z,22.22
2022-10-30T10:29:15.964Z,22.47
2022-10-30T10:33:32.770Z,22.71
2022-10-30T10:37:44.839Z,22.92
2022-10-30T10:42:10.367Z,23.15
2022-10-30T10:46:36.469Z,23.39
2022-10-30T10:50:49.492Z,23.62
2022-10-30T10:54:58.849Z,23.84
2022-10-30T10:59:09.092Z,24.06
2022-10-30T11:07:28.798Z,24.56
2022-10-30T11:11:32.288Z,24.73
2022-10-30T11:15:47.490Z,24.93
2022-10-30T11:19:56.346Z,25.10
2022-10-30T11:23:59.485Z,25.25
2022-10-30T11:28:06.559Z,25.38
2022-10-30T11:32:22.226Z,25.49
2022-10-30T11:36:27.693Z,25.55
2022-10-30T11:40:31.305Z,25.58
2022-10-30T11:44:38.841Z,25.62
2022-10-30T11:48:46.487Z,25.67
2022-10-30T11:52:52.636Z,25.74
2022-10-30T11:56:57.156Z,25.83
2022-10-30T12:01:03.122Z,25.93
2022-10-30T12:05:33.061Z,26.00
2022-10-30T12:09:44.278Z,26.01
2022-10-30T12:13:48.064Z,25.90
2022-10-30T12:17:55.332Z,25.80
2022-10-30T12:22:03.654Z,25.72
2022-10-30T12:26:12.770Z,25.66
2022-10-30T12:30:20.085Z,25.67
2022-10-30T12:34:37.976Z,25.70
2022-10-30T12:38:46.847Z,25.73
2022-10-30T12:42:56.971Z,25.73
2022-10-30T12:47:05.125Z,25.74
2022-10-30T12:51:21.217Z,25.76
2022-10-30T12:55:36.282Z,25.72
2022-10-30T12:59:52.491Z,25.72
2022-10-30T13:03:59.046Z,25.66
2022-10-30T13:08:16.227Z,25.62
2022-10-30T13:12:25.723Z,25.59
2022-10-30T13:16:31.940Z,25.59
2022-10-30T13:20:36.297Z,25.58
2022-10-30T13:24:50.147Z,25.59
2022-10-30T13:29:00.926Z,25.57
2022-10-30T13:33:16.035Z,25.52
2022-10-30T13:37:28.302Z,25.44
2022-10-30T13:41:41.290Z,25.36
2022-10-30T13:45:57.869Z,25.26
2022-10-30T13:50:21.792Z,25.16
2022-10-30T13:54:29.947Z,25.04
2022-10-30T13:58:41.877Z,24.90
2022-10-30T14:03:12.079Z,24.74
2022-10-30T14:07:26.715Z,24.54
2022-10-30T14:11:30.378Z,24.28
2022-10-30T14:15:36.209Z,24.02
2022-10-30T14:20:27.271Z,23.76
2022-10-30T14:24:33.324Z,23.49
2022-10-30T14:28:38.159Z,23.17
2022-10-30T14:32:53.967Z,22.84
2022-10-30T14:36:58.962Z,22.49
2022-10-30T14:41:21.176Z,22.15
2022-10-30T14:45:29.394Z,21.86
2022-10-30T14:49:49.445Z,21.59
2022-10-30T14:54:04.124Z,21.37
2022-10-30T14:58:20.122Z,21.16
2022-10-30T15:02:39.420Z,20.96
2022-10-30T15:06:55.487Z,20.74
2022-10-30T15:11:22.539Z,20.53
2022-10-30T15:15:25.889Z,20.30
2022-10-30T15:19:30.630Z,20.08
2022-10-30T15:23:37.347Z,19.85
2022-10-30T15:27:44.847Z,19.62
2022-10-30T15:31:59.030Z,19.38
2022-10-30T15:36:02.862Z,19.15
2022-10-30T15:40:18.904Z,18.94
2022-10-30T15:44:26.119Z,18.75
2022-10-30T15:48:31.947Z,18.54
2022-10-30T15:52:36.776Z,18.38
2022-10-30T15:57:18.045Z,18.19
2022-10-30T16:01:26.685Z,18.03
2022-10-30T16:05:31.063Z,17.86
2022-10-30T16:09:34.160Z,17.72
2022-10-30T16:13:38.120Z,17.60
2022-10-30T16:17:43.468Z,17.48
2022-10-30T16:21:48.742Z,17.35
2022-10-30T16:25:57.727Z,17.25
2022-10-30T16:30:02.605Z,17.14
2022-10-30T16:34:15.086Z,17.04
2022-10-30T16:38:19.604Z,16.94
2022-10-30T16:42:24.820Z,16.86
2022-10-30T16:46:39.076Z,16.79
2022-10-30T16:50:44.376Z,16.69
2022-10-30T16:54:51.200Z,16.61
2022-10-30T16:58:56.192Z,16.52
2022-10-30T17:03:00.944Z,16.44
2022-10-30T17:07:19.205Z,16.36
2022-10-30T17:11:36.091Z,16.25
2022-10-30T17:15:39.741Z,16.16
2022-10-30T17:19:48.798Z,16.10
2022-10-30T17:23:57.715Z,16.03
2022-10-30T17:28:01.460Z,15.94
2022-10-30T17:32:05.837Z,15.86
2022-10-30T17:36:10.166Z,15.78
2022-10-30T17:40:15.766Z,15.67
2022-10-30T17:44:22.345Z,15.58
2022-10-30T17:48:28.381Z,15.52
2022-10-30T17:52:31.365Z,15.47
2022-10-30T17:56:36.359Z,15.42
2022-10-30T18:00:39.420Z,15.35
2022-10-30T18:04:44.104Z,15.28
2022-10-30T18:08:50.777Z,15.20
2022-10-30T18:12:56.639Z,15.10
2022-10-30T18:17:00.482Z,15.02
2022-10-30T18:21:03.696Z,14.96
2022-10-30T18:25:17.221Z,14.92
2022-10-30T18:29:21.902Z,14.88
2022-10-30T18:33:25.673Z,14.85
2022-10-30T18:37:28.848Z,14.82
2022-10-30T18:41:35.556Z,14.80
2022-10-30T18:45:42.049Z,14.80
2022-10-30T18:49:45.694Z,14.76
2022-10-30T18:53:52.842Z,14.73
2022-10-30T18:57:56.009Z,14.71
2022-10-30T19:02:02.581Z,14.67
2022-10-30T19:06:07.714Z,14.64
2022-10-30T19:10:11.688Z,14.60
2022-10-30T19:14:16.173Z,14.54
2022-10-30T19:18:22.211Z,14.51
2022-10-30T19:22:25.332Z,14.45
2022-10-30T19:26:29.110Z,14.42
2022-10-30T19:30:32.885Z,14.39
2022-10-30T19:34:39.176Z,14.38
2022-10-30T19:38:42.775Z,14.33
2022-10-30T19:42:46.900Z,14.28
2022-10-30T19:46:50.305Z,14.21
2022-10-30T19:50:55.393Z,14.16
2022-10-30T19:54:58.499Z,14.11
2022-10-30T19:59:04.220Z,14.07
2022-10-30T20:03:09.442Z,14.05
2022-10-30T20:07:14.717Z,14.04
2022-10-30T20:11:21.149Z,14.01
2022-10-30T20:15:25.658Z,13.98
2022-10-30T20:19:30.804Z,13.97
2022-10-30T20:23:36.549Z,13.94
2022-10-30T20:27:41.373Z,13.90
2022-10-30T20:31:44.639Z,13.89
2022-10-30T20:35:48.969Z,13.86
2022-10-30T20:39:53.812Z,13.84
2022-10-30T20:43:57.730Z,13.79
2022-10-30T20:48:01.712Z,13.81
2022-10-30T20:52:05.508Z,13.80
2022-10-30T20:56:11.971Z,13.82
2022-10-30T21:00:16.174Z,13.85
2022-10-30T21:04:19.750Z,13.89
2022-10-30T21:08:23.065Z,13.96
2022-10-30T21:12:28.158Z,14.01
2022-10-30T21:16:31.518Z,14.09
2022-10-30T21:20:35.586Z,14.17
2022-10-30T21:24:38.600Z,14.24
2022-10-30T21:28:44.243Z,14.32
2022-10-30T21:32:48.797Z,14.39
2022-10-30T21:36:52.063Z,14.44
2022-10-30T21:40:58.541Z,14.51
2022-10-30T21:53:45.611Z,14.56
2022-10-30T21:57:49.442Z,14.57
2022-10-30T22:01:53.826Z,14.56
